sensor_id;sensor_type;location;lat;lon;timestamp;P1;durP1;ratioP1;P2;durP2;ratioP2
47599;SDS011;33323;52.124;6.018;2023-12-07T00:00:11;18.98;;;11.00;;
47599;SDS011;33323;52.124;6.018;2023-12-07T00:02:39;23.95;;;11.85;;
47599;SDS011;33323;52.124;6.018;2023-12-07T00:05:06;23.02;;;10.98;;
47599;SDS011;33323;52.124;6.018;2023-12-07T00:07:34;22.23;;;11.15;;
47599;SDS011;33323;52.124;6.018;2023-12-07T00:10:01;23.90;;;12.07;;
47599;SDS011;33323;52.124;6.018;2023-12-07T00:12:29;22.55;;;12.10;;
47599;SDS011;33323;52.124;6.018;2023-12-07T00:14:56;19.67;;;12.00;;
47599;SDS011;33323;52.124;6.018;2023-12-07T00:17:23;28.20;;;11.80;;
47599;SDS011;33323;52.124;6.018;2023-12-07T00:19:50;21.02;;;11.25;;
47599;SDS011;33323;52.124;6.018;2023-12-07T00:22:20;22.60;;;10.40;;
47599;SDS011;33323;52.124;6.018;2023-12-07T00:24:47;19.98;;;11.35;;
47599;SDS011;33323;52.124;6.018;2023-12-07T00:27:15;25.60;;;11.38;;
47599;SDS011;33323;52.124;6.018;2023-12-07T00:29:42;22.67;;;12.45;;
47599;SDS011;33323;52.124;6.018;2023-12-07T00:32:09;23.83;;;11.55;;
47599;SDS011;33323;52.124;6.018;2023-12-07T00:34:36;20.13;;;11.93;;
47599;SDS011;33323;52.124;6.018;2023-12-07T00:37:04;23.10;;;13.98;;
47599;SDS011;33323;52.124;6.018;2023-12-07T00:39:31;20.13;;;11.45;;
47599;SDS011;33323;52.124;6.018;2023-12-07T00:41:59;23.20;;;11.32;;
47599;SDS011;33323;52.124;6.018;2023-12-07T00:44:26;22.13;;;12.27;;
47599;SDS011;33323;52.124;6.018;2023-12-07T00:46:53;22.52;;;12.63;;
47599;SDS011;33323;52.124;6.018;2023-12-07T00:49:21;20.88;;;11.18;;
47599;SDS011;33323;52.124;6.018;2023-12-07T00:51:48;19.00;;;11.98;;
47599;SDS011;33323;52.124;6.018;2023-12-07T00:54:15;23.38;;;11.50;;
47599;SDS011;33323;52.124;6.018;2023-12-07T00:56:42;23.05;;;11.65;;
47599;SDS011;33323;52.124;6.018;2023-12-07T00:59:09;21.08;;;11.50;;
47599;SDS011;33323;52.124;6.018;2023-12-07T01:01:36;24.13;;;12.85;;
47599;SDS011;33323;52.124;6.018;2023-12-07T01:04:05;26.42;;;11.73;;
47599;SDS011;33323;52.124;6.018;2023-12-07T01:06:32;25.20;;;11.35;;
47599;SDS011;33323;52.124;6.018;2023-12-07T01:09:00;23.85;;;10.93;;
47599;SDS011;33323;52.124;6.018;2023-12-07T01:11:27;23.05;;;10.88;;
47599;SDS011;33323;52.124;6.018;2023-12-07T01:13:54;22.80;;;11.50;;
47599;SDS011;33323;52.124;6.018;2023-12-07T01:16:21;20.23;;;10.77;;
47599;SDS011;33323;52.124;6.018;2023-12-07T01:18:48;19.75;;;11.50;;
47599;SDS011;33323;52.124;6.018;2023-12-07T01:21:15;22.15;;;11.60;;
47599;SDS011;33323;52.124;6.018;2023-12-07T01:23:42;22.88;;;10.98;;
47599;SDS011;33323;52.124;6.018;2023-12-07T01:26:10;18.83;;;10.45;;
47599;SDS011;33323;52.124;6.018;2023-12-07T01:28:37;25.67;;;12.88;;
47599;SDS011;33323;52.124;6.018;2023-12-07T01:31:05;21.15;;;9.88;;
47599;SDS011;33323;52.124;6.018;2023-12-07T01:33:32;24.25;;;11.32;;
47599;SDS011;33323;52.124;6.018;2023-12-07T01:36:00;22.17;;;12.27;;
47599;SDS011;33323;52.124;6.018;2023-12-07T01:38:27;23.95;;;11.45;;
47599;SDS011;33323;52.124;6.018;2023-12-07T01:40:54;20.27;;;11.60;;
47599;SDS011;33323;52.124;6.018;2023-12-07T01:43:22;22.52;;;10.65;;
47599;SDS011;33323;52.124;6.018;2023-12-07T01:45:49;21.95;;;10.30;;
47599;SDS011;33323;52.124;6.018;2023-12-07T01:48:22;20.63;;;10.80;;
47599;SDS011;33323;52.124;6.018;2023-12-07T01:50:55;16.98;;;9.98;;
47599;SDS011;33323;52.124;6.018;2023-12-07T01:53:23;19.60;;;11.13;;
47599;SDS011;33323;52.124;6.018;2023-12-07T01:55:53;21.10;;;10.68;;
47599;SDS011;33323;52.124;6.018;2023-12-07T01:58:20;23.13;;;10.60;;
47599;SDS011;33323;52.124;6.018;2023-12-07T02:00:47;19.10;;;11.75;;
47599;SDS011;33323;52.124;6.018;2023-12-07T02:03:15;18.55;;;10.57;;
47599;SDS011;33323;52.124;6.018;2023-12-07T02:05:46;22.35;;;11.65;;
47599;SDS011;33323;52.124;6.018;2023-12-07T02:08:15;22.15;;;11.00;;
47599;SDS011;33323;52.124;6.018;2023-12-07T02:10:42;21.48;;;11.25;;
47599;SDS011;33323;52.124;6.018;2023-12-07T02:13:09;22.95;;;12.48;;
47599;SDS011;33323;52.124;6.018;2023-12-07T02:15:36;19.15;;;10.93;;
47599;SDS011;33323;52.124;6.018;2023-12-07T02:18:10;17.65;;;10.40;;
47599;SDS011;33323;52.124;6.018;2023-12-07T02:20:57;23.55;;;9.18;;
47599;SDS011;33323;52.124;6.018;2023-12-07T02:23:40;23.08;;;9.27;;
47599;SDS011;33323;52.124;6.018;2023-12-07T02:26:18;19.50;;;11.15;;
47599;SDS011;33323;52.124;6.018;2023-12-07T02:28:48;17.38;;;10.63;;
47599;SDS011;33323;52.124;6.018;2023-12-07T02:31:15;17.65;;;10.30;;
47599;SDS011;33323;52.124;6.018;2023-12-07T02:33:42;20.30;;;10.80;;
47599;SDS011;33323;52.124;6.018;2023-12-07T02:36:10;16.88;;;10.07;;
47599;SDS011;33323;52.124;6.018;2023-12-07T02:38:41;20.85;;;10.25;;
47599;SDS011;33323;52.124;6.018;2023-12-07T02:41:09;18.85;;;10.82;;
47599;SDS011;33323;52.124;6.018;2023-12-07T02:43:37;16.30;;;10.15;;
47599;SDS011;33323;52.124;6.018;2023-12-07T02:46:05;20.95;;;11.07;;
47599;SDS011;33323;52.124;6.018;2023-12-07T02:48:32;22.80;;;11.98;;
47599;SDS011;33323;52.124;6.018;2023-12-07T02:51:00;19.90;;;11.23;;
47599;SDS011;33323;52.124;6.018;2023-12-07T02:53:27;20.58;;;9.90;;
47599;SDS011;33323;52.124;6.018;2023-12-07T02:55:54;19.10;;;10.30;;
47599;SDS011;33323;52.124;6.018;2023-12-07T02:58:21;17.80;;;11.43;;
47599;SDS011;33323;52.124;6.018;2023-12-07T03:00:48;18.40;;;10.88;;
47599;SDS011;33323;52.124;6.018;2023-12-07T03:03:16;21.10;;;11.57;;
47599;SDS011;33323;52.124;6.018;2023-12-07T03:05:43;19.98;;;10.68;;
47599;SDS011;33323;52.124;6.018;2023-12-07T03:08:10;21.10;;;11.02;;
47599;SDS011;33323;52.124;6.018;2023-12-07T03:10:37;21.33;;;9.25;;
47599;SDS011;33323;52.124;6.018;2023-12-07T03:13:05;15.90;;;9.00;;
47599;SDS011;33323;52.124;6.018;2023-12-07T03:15:32;18.80;;;9.32;;
47599;SDS011;33323;52.124;6.018;2023-12-07T03:17:59;20.10;;;9.30;;
47599;SDS011;33323;52.124;6.018;2023-12-07T03:20:26;17.05;;;9.98;;
47599;SDS011;33323;52.124;6.018;2023-12-07T03:22:53;26.10;;;10.18;;
47599;SDS011;33323;52.124;6.018;2023-12-07T03:25:21;41.65;;;10.60;;
47599;SDS011;33323;52.124;6.018;2023-12-07T03:27:48;39.83;;;11.63;;
47599;SDS011;33323;52.124;6.018;2023-12-07T03:30:15;92.18;;;17.08;;
47599;SDS011;33323;52.124;6.018;2023-12-07T03:32:42;21.30;;;10.15;;
47599;SDS011;33323;52.124;6.018;2023-12-07T03:35:09;29.25;;;14.05;;
47599;SDS011;33323;52.124;6.018;2023-12-07T03:37:37;75.38;;;18.13;;
47599;SDS011;33323;52.124;6.018;2023-12-07T03:40:04;26.77;;;11.18;;
47599;SDS011;33323;52.124;6.018;2023-12-07T03:42:32;43.10;;;8.68;;
47599;SDS011;33323;52.124;6.018;2023-12-07T03:45:19;53.38;;;12.57;;
47599;SDS011;33323;52.124;6.018;2023-12-07T03:47:46;75.60;;;16.27;;
47599;SDS011;33323;52.124;6.018;2023-12-07T03:50:15;70.63;;;15.95;;
47599;SDS011;33323;52.124;6.018;2023-12-07T03:52:42;26.40;;;10.38;;
47599;SDS011;33323;52.124;6.018;2023-12-07T03:55:09;148.35;;;20.95;;
47599;SDS011;33323;52.124;6.018;2023-12-07T03:57:37;68.85;;;14.02;;
47599;SDS011;33323;52.124;6.018;2023-12-07T04:00:05;102.45;;;21.65;;
47599;SDS011;33323;52.124;6.018;2023-12-07T04:02:36;24.13;;;12.93;;
47599;SDS011;33323;52.124;6.018;2023-12-07T04:05:03;28.58;;;12.68;;
47599;SDS011;33323;52.124;6.018;2023-12-07T04:07:31;24.58;;;12.48;;
47599;SDS011;33323;52.124;6.018;2023-12-07T04:09:58;38.28;;;14.88;;
47599;SDS011;33323;52.124;6.018;2023-12-07T04:12:25;25.52;;;12.98;;
47599;SDS011;33323;52.124;6.018;2023-12-07T04:14:52;22.33;;;11.60;;
47599;SDS011;33323;52.124;6.018;2023-12-07T04:17:19;25.88;;;13.40;;
47599;SDS011;33323;52.124;6.018;2023-12-07T04:19:47;21.65;;;12.98;;
47599;SDS011;33323;52.124;6.018;2023-12-07T04:22:15;22.25;;;10.73;;
47599;SDS011;33323;52.124;6.018;2023-12-07T04:24:42;26.33;;;12.80;;
47599;SDS011;33323;52.124;6.018;2023-12-07T04:27:09;24.85;;;13.30;;
47599;SDS011;33323;52.124;6.018;2023-12-07T04:29:36;20.35;;;12.10;;
47599;SDS011;33323;52.124;6.018;2023-12-07T04:32:04;24.65;;;15.73;;
47599;SDS011;33323;52.124;6.018;2023-12-07T04:34:31;23.83;;;12.82;;
47599;SDS011;33323;52.124;6.018;2023-12-07T04:36:58;22.30;;;12.05;;
47599;SDS011;33323;52.124;6.018;2023-12-07T04:39:26;26.75;;;13.63;;
47599;SDS011;33323;52.124;6.018;2023-12-07T04:41:53;32.47;;;18.67;;
47599;SDS011;33323;52.124;6.018;2023-12-07T04:44:20;30.17;;;16.75;;
47599;SDS011;33323;52.124;6.018;2023-12-07T04:46:47;28.63;;;15.65;;
47599;SDS011;33323;52.124;6.018;2023-12-07T04:49:14;32.78;;;18.33;;
47599;SDS011;33323;52.124;6.018;2023-12-07T04:51:41;21.35;;;12.38;;
47599;SDS011;33323;52.124;6.018;2023-12-07T04:54:13;18.70;;;11.07;;
47599;SDS011;33323;52.124;6.018;2023-12-07T04:56:45;17.85;;;10.45;;
47599;SDS011;33323;52.124;6.018;2023-12-07T04:59:12;20.42;;;10.85;;
47599;SDS011;33323;52.124;6.018;2023-12-07T05:01:40;22.20;;;11.90;;
47599;SDS011;33323;52.124;6.018;2023-12-07T05:04:07;16.50;;;10.52;;
47599;SDS011;33323;52.124;6.018;2023-12-07T05:06:34;20.52;;;10.60;;
47599;SDS011;33323;52.124;6.018;2023-12-07T05:09:02;21.40;;;10.70;;
47599;SDS011;33323;52.124;6.018;2023-12-07T05:11:29;22.02;;;10.70;;
47599;SDS011;33323;52.124;6.018;2023-12-07T05:13:56;16.58;;;9.32;;
47599;SDS011;33323;52.124;6.018;2023-12-07T05:16:24;19.10;;;9.57;;
47599;SDS011;33323;52.124;6.018;2023-12-07T05:18:51;19.10;;;9.70;;
47599;SDS011;33323;52.124;6.018;2023-12-07T05:21:18;18.70;;;10.90;;
47599;SDS011;33323;52.124;6.018;2023-12-07T05:23:46;15.98;;;9.60;;
47599;SDS011;33323;52.124;6.018;2023-12-07T05:26:13;17.10;;;9.18;;
47599;SDS011;33323;52.124;6.018;2023-12-07T05:28:41;20.63;;;9.88;;
47599;SDS011;33323;52.124;6.018;2023-12-07T05:31:08;18.02;;;9.82;;
47599;SDS011;33323;52.124;6.018;2023-12-07T05:33:35;16.90;;;9.27;;
47599;SDS011;33323;52.124;6.018;2023-12-07T05:36:03;18.65;;;9.70;;
47599;SDS011;33323;52.124;6.018;2023-12-07T05:38:30;20.88;;;11.32;;
47599;SDS011;33323;52.124;6.018;2023-12-07T05:40:57;20.35;;;10.43;;
47599;SDS011;33323;52.124;6.018;2023-12-07T05:43:24;18.73;;;9.38;;
47599;SDS011;33323;52.124;6.018;2023-12-07T05:45:52;23.30;;;11.90;;
47599;SDS011;33323;52.124;6.018;2023-12-07T05:48:19;21.75;;;11.95;;
47599;SDS011;33323;52.124;6.018;2023-12-07T05:50:46;22.58;;;11.20;;
47599;SDS011;33323;52.124;6.018;2023-12-07T05:53:14;21.33;;;11.00;;
47599;SDS011;33323;52.124;6.018;2023-12-07T05:55:41;19.63;;;10.07;;
47599;SDS011;33323;52.124;6.018;2023-12-07T05:58:08;20.05;;;12.73;;
47599;SDS011;33323;52.124;6.018;2023-12-07T06:00:35;20.52;;;10.50;;
47599;SDS011;33323;52.124;6.018;2023-12-07T06:03:04;18.45;;;9.65;;
47599;SDS011;33323;52.124;6.018;2023-12-07T06:05:31;17.30;;;9.38;;
47599;SDS011;33323;52.124;6.018;2023-12-07T06:07:58;18.13;;;10.43;;
47599;SDS011;33323;52.124;6.018;2023-12-07T06:10:25;21.52;;;10.80;;
47599;SDS011;33323;52.124;6.018;2023-12-07T06:12:53;19.45;;;9.82;;
47599;SDS011;33323;52.124;6.018;2023-12-07T06:15:21;20.52;;;10.02;;
47599;SDS011;33323;52.124;6.018;2023-12-07T06:17:49;18.85;;;10.65;;
47599;SDS011;33323;52.124;6.018;2023-12-07T06:20:16;20.80;;;9.93;;
47599;SDS011;33323;52.124;6.018;2023-12-07T06:22:43;24.38;;;10.88;;
47599;SDS011;33323;52.124;6.018;2023-12-07T06:25:10;20.80;;;11.32;;
47599;SDS011;33323;52.124;6.018;2023-12-07T06:27:38;20.25;;;10.70;;
47599;SDS011;33323;52.124;6.018;2023-12-07T06:30:05;20.95;;;11.05;;
47599;SDS011;33323;52.124;6.018;2023-12-07T06:32:33;30.33;;;13.68;;
47599;SDS011;33323;52.124;6.018;2023-12-07T06:35:00;25.55;;;13.05;;
47599;SDS011;33323;52.124;6.018;2023-12-07T06:37:30;28.50;;;13.35;;
47599;SDS011;33323;52.124;6.018;2023-12-07T06:39:57;26.88;;;13.18;;
47599;SDS011;33323;52.124;6.018;2023-12-07T06:42:26;39.70;;;13.70;;
47599;SDS011;33323;52.124;6.018;2023-12-07T06:44:53;27.25;;;12.70;;
47599;SDS011;33323;52.124;6.018;2023-12-07T06:47:21;26.33;;;13.05;;
47599;SDS011;33323;52.124;6.018;2023-12-07T06:49:48;30.05;;;13.60;;
47599;SDS011;33323;52.124;6.018;2023-12-07T06:52:18;27.83;;;13.20;;
47599;SDS011;33323;52.124;6.018;2023-12-07T06:54:46;30.20;;;13.82;;
47599;SDS011;33323;52.124;6.018;2023-12-07T06:57:13;28.15;;;13.68;;
47599;SDS011;33323;52.124;6.018;2023-12-07T06:59:41;29.50;;;14.50;;
47599;SDS011;33323;52.124;6.018;2023-12-07T07:02:08;28.15;;;13.57;;
47599;SDS011;33323;52.124;6.018;2023-12-07T07:04:36;28.80;;;13.27;;
47599;SDS011;33323;52.124;6.018;2023-12-07T07:07:03;30.65;;;14.15;;
47599;SDS011;33323;52.124;6.018;2023-12-07T07:09:31;43.67;;;15.75;;
47599;SDS011;33323;52.124;6.018;2023-12-07T07:11:58;31.52;;;14.43;;
47599;SDS011;33323;52.124;6.018;2023-12-07T07:14:25;30.58;;;14.98;;
47599;SDS011;33323;52.124;6.018;2023-12-07T07:16:53;36.70;;;15.05;;
47599;SDS011;33323;52.124;6.018;2023-12-07T07:19:20;36.92;;;16.23;;
47599;SDS011;33323;52.124;6.018;2023-12-07T07:21:47;46.95;;;15.98;;
47599;SDS011;33323;52.124;6.018;2023-12-07T07:24:15;50.88;;;16.08;;
47599;SDS011;33323;52.124;6.018;2023-12-07T07:26:42;48.67;;;16.48;;
47599;SDS011;33323;52.124;6.018;2023-12-07T07:29:10;41.25;;;15.32;;
47599;SDS011;33323;52.124;6.018;2023-12-07T07:31:37;31.60;;;15.57;;
47599;SDS011;33323;52.124;6.018;2023-12-07T07:34:05;52.75;;;20.42;;
47599;SDS011;33323;52.124;6.018;2023-12-07T07:36:32;36.72;;;16.20;;
47599;SDS011;33323;52.124;6.018;2023-12-07T07:39:00;38.45;;;17.15;;
47599;SDS011;33323;52.124;6.018;2023-12-07T07:41:27;56.97;;;19.33;;
47599;SDS011;33323;52.124;6.018;2023-12-07T07:43:54;66.75;;;20.85;;
47599;SDS011;33323;52.124;6.018;2023-12-07T07:46:22;54.42;;;19.50;;
47599;SDS011;33323;52.124;6.018;2023-12-07T07:48:49;50.75;;;19.33;;
47599;SDS011;33323;52.124;6.018;2023-12-07T07:51:17;45.17;;;19.58;;
47599;SDS011;33323;52.124;6.018;2023-12-07T07:53:44;56.88;;;19.08;;
47599;SDS011;33323;52.124;6.018;2023-12-07T07:56:12;77.28;;;22.60;;
47599;SDS011;33323;52.124;6.018;2023-12-07T07:58:39;54.75;;;22.33;;
47599;SDS011;33323;52.124;6.018;2023-12-07T08:01:07;72.72;;;23.38;;
47599;SDS011;33323;52.124;6.018;2023-12-07T08:03:34;89.20;;;26.13;;
47599;SDS011;33323;52.124;6.018;2023-12-07T08:06:01;86.00;;;22.77;;
47599;SDS011;33323;52.124;6.018;2023-12-07T08:08:29;53.92;;;20.05;;
47599;SDS011;33323;52.124;6.018;2023-12-07T08:10:57;114.10;;;25.67;;
47599;SDS011;33323;52.124;6.018;2023-12-07T08:13:24;88.80;;;22.75;;
47599;SDS011;33323;52.124;6.018;2023-12-07T08:15:51;78.85;;;22.73;;
47599;SDS011;33323;52.124;6.018;2023-12-07T08:18:24;117.95;;;22.85;;
47599;SDS011;33323;52.124;6.018;2023-12-07T08:20:52;103.30;;;25.15;;
47599;SDS011;33323;52.124;6.018;2023-12-07T08:23:19;179.07;;;32.40;;
47599;SDS011;33323;52.124;6.018;2023-12-07T08:25:47;86.50;;;23.90;;
47599;SDS011;33323;52.124;6.018;2023-12-07T08:28:15;95.43;;;24.88;;
47599;SDS011;33323;52.124;6.018;2023-12-07T08:30:42;109.10;;;28.00;;
47599;SDS011;33323;52.124;6.018;2023-12-07T08:33:10;62.90;;;20.92;;
47599;SDS011;33323;52.124;6.018;2023-12-07T08:35:37;86.97;;;24.42;;
47599;SDS011;33323;52.124;6.018;2023-12-07T08:38:05;84.13;;;25.48;;
47599;SDS011;33323;52.124;6.018;2023-12-07T08:40:32;82.57;;;25.00;;
47599;SDS011;33323;52.124;6.018;2023-12-07T08:43:00;93.28;;;24.10;;
47599;SDS011;33323;52.124;6.018;2023-12-07T08:45:27;116.03;;;27.27;;
47599;SDS011;33323;52.124;6.018;2023-12-07T08:47:54;95.25;;;30.05;;
47599;SDS011;33323;52.124;6.018;2023-12-07T08:50:22;89.95;;;24.10;;
47599;SDS011;33323;52.124;6.018;2023-12-07T08:52:49;68.32;;;25.83;;
47599;SDS011;33323;52.124;6.018;2023-12-07T08:55:25;90.18;;;28.20;;
47599;SDS011;33323;52.124;6.018;2023-12-07T08:57:53;77.07;;;25.13;;
47599;SDS011;33323;52.124;6.018;2023-12-07T09:00:21;69.07;;;26.05;;
47599;SDS011;33323;52.124;6.018;2023-12-07T09:02:50;67.70;;;24.48;;
47599;SDS011;33323;52.124;6.018;2023-12-07T09:05:18;61.35;;;26.38;;
47599;SDS011;33323;52.124;6.018;2023-12-07T09:07:46;60.05;;;23.88;;
47599;SDS011;33323;52.124;6.018;2023-12-07T09:10:14;65.68;;;25.73;;
47599;SDS011;33323;52.124;6.018;2023-12-07T09:12:42;82.15;;;23.65;;
47599;SDS011;33323;52.124;6.018;2023-12-07T09:15:09;114.25;;;26.63;;
47599;SDS011;33323;52.124;6.018;2023-12-07T09:17:40;59.88;;;24.13;;
47599;SDS011;33323;52.124;6.018;2023-12-07T09:20:09;73.20;;;24.80;;
47599;SDS011;33323;52.124;6.018;2023-12-07T09:22:44;66.85;;;23.23;;
47599;SDS011;33323;52.124;6.018;2023-12-07T09:25:15;57.90;;;24.60;;
47599;SDS011;33323;52.124;6.018;2023-12-07T09:27:43;79.38;;;27.25;;
47599;SDS011;33323;52.124;6.018;2023-12-07T09:30:11;74.25;;;26.25;;
47599;SDS011;33323;52.124;6.018;2023-12-07T09:32:39;73.72;;;24.45;;
47599;SDS011;33323;52.124;6.018;2023-12-07T09:35:11;66.35;;;24.45;;
47599;SDS011;33323;52.124;6.018;2023-12-07T09:37:48;74.90;;;25.55;;
47599;SDS011;33323;52.124;6.018;2023-12-07T09:40:17;80.03;;;23.48;;
47599;SDS011;33323;52.124;6.018;2023-12-07T09:42:48;64.90;;;21.73;;
47599;SDS011;33323;52.124;6.018;2023-12-07T09:45:17;67.95;;;23.45;;
47599;SDS011;33323;52.124;6.018;2023-12-07T09:47:51;62.58;;;24.23;;
47599;SDS011;33323;52.124;6.018;2023-12-07T09:50:20;58.83;;;21.77;;
47599;SDS011;33323;52.124;6.018;2023-12-07T09:52:54;67.78;;;23.83;;
47599;SDS011;33323;52.124;6.018;2023-12-07T09:55:26;67.55;;;22.48;;
47599;SDS011;33323;52.124;6.018;2023-12-07T09:57:54;60.38;;;23.98;;
47599;SDS011;33323;52.124;6.018;2023-12-07T10:00:27;70.70;;;22.58;;
47599;SDS011;33323;52.124;6.018;2023-12-07T10:02:55;59.97;;;22.95;;
47599;SDS011;33323;52.124;6.018;2023-12-07T10:05:23;65.10;;;22.52;;
47599;SDS011;33323;52.124;6.018;2023-12-07T10:07:51;58.65;;;20.70;;
47599;SDS011;33323;52.124;6.018;2023-12-07T10:10:18;72.20;;;23.25;;
47599;SDS011;33323;52.124;6.018;2023-12-07T10:15:26;53.80;;;19.67;;
47599;SDS011;33323;52.124;6.018;2023-12-07T10:17:55;52.70;;;21.00;;
47599;SDS011;33323;52.124;6.018;2023-12-07T10:20:28;51.40;;;21.15;;
47599;SDS011;33323;52.124;6.018;2023-12-07T10:23:03;44.50;;;19.00;;
47599;SDS011;33323;52.124;6.018;2023-12-07T10:25:37;47.42;;;17.20;;
47599;SDS011;33323;52.124;6.018;2023-12-07T10:28:09;34.20;;;16.92;;
47599;SDS011;33323;52.124;6.018;2023-12-07T10:30:42;42.28;;;16.52;;
47599;SDS011;33323;52.124;6.018;2023-12-07T10:33:12;44.17;;;17.88;;
47599;SDS011;33323;52.124;6.018;2023-12-07T10:35:42;47.28;;;17.83;;
47599;SDS011;33323;52.124;6.018;2023-12-07T10:38:10;46.30;;;15.10;;
47599;SDS011;33323;52.124;6.018;2023-12-07T10:40:39;48.13;;;17.05;;
47599;SDS011;33323;52.124;6.018;2023-12-07T10:43:08;39.53;;;15.73;;
47599;SDS011;33323;52.124;6.018;2023-12-07T10:45:36;41.58;;;15.52;;
47599;SDS011;33323;52.124;6.018;2023-12-07T10:48:07;35.08;;;15.68;;
47599;SDS011;33323;52.124;6.018;2023-12-07T10:50:41;37.72;;;15.50;;
47599;SDS011;33323;52.124;6.018;2023-12-07T10:53:26;37.17;;;14.83;;
47599;SDS011;33323;52.124;6.018;2023-12-07T10:56:01;36.25;;;14.00;;
47599;SDS011;33323;52.124;6.018;2023-12-07T10:58:31;37.72;;;15.57;;
47599;SDS011;33323;52.124;6.018;2023-12-07T11:01:04;35.55;;;13.73;;
47599;SDS011;33323;52.124;6.018;2023-12-07T11:03:38;35.35;;;14.07;;
47599;SDS011;33323;52.124;6.018;2023-12-07T11:06:07;31.65;;;13.20;;
47599;SDS011;33323;52.124;6.018;2023-12-07T11:08:58;34.35;;;12.10;;
47599;SDS011;33323;52.124;6.018;2023-12-07T11:11:29;38.13;;;13.68;;
47599;SDS011;33323;52.124;6.018;2023-12-07T11:14:18;30.92;;;12.32;;
47599;SDS011;33323;52.124;6.018;2023-12-07T11:16:46;30.05;;;12.65;;
47599;SDS011;33323;52.124;6.018;2023-12-07T11:22:01;32.65;;;13.48;;
47599;SDS011;33323;52.124;6.018;2023-12-07T11:24:31;35.05;;;13.10;;
47599;SDS011;33323;52.124;6.018;2023-12-07T11:27:00;29.83;;;11.95;;
47599;SDS011;33323;52.124;6.018;2023-12-07T11:29:32;30.90;;;12.77;;
47599;SDS011;33323;52.124;6.018;2023-12-07T11:32:03;31.92;;;13.68;;
47599;SDS011;33323;52.124;6.018;2023-12-07T11:34:45;36.05;;;11.60;;
47599;SDS011;33323;52.124;6.018;2023-12-07T11:37:19;30.80;;;11.70;;
47599;SDS011;33323;52.124;6.018;2023-12-07T11:39:53;38.65;;;13.82;;
47599;SDS011;33323;52.124;6.018;2023-12-07T11:42:31;41.00;;;14.55;;
47599;SDS011;33323;52.124;6.018;2023-12-07T11:45:02;40.50;;;15.48;;
47599;SDS011;33323;52.124;6.018;2023-12-07T11:47:42;34.85;;;15.02;;
47599;SDS011;33323;52.124;6.018;2023-12-07T11:50:17;31.40;;;13.25;;
47599;SDS011;33323;52.124;6.018;2023-12-07T11:52:56;37.60;;;14.82;;
47599;SDS011;33323;52.124;6.018;2023-12-07T11:55:27;35.15;;;14.48;;
47599;SDS011;33323;52.124;6.018;2023-12-07T11:58:06;37.63;;;14.13;;
47599;SDS011;33323;52.124;6.018;2023-12-07T12:00:40;40.63;;;15.35;;
47599;SDS011;33323;52.124;6.018;2023-12-07T12:03:16;34.53;;;15.48;;
47599;SDS011;33323;52.124;6.018;2023-12-07T12:05:46;37.05;;;14.27;;
47599;SDS011;33323;52.124;6.018;2023-12-07T12:08:21;25.67;;;12.48;;
47599;SDS011;33323;52.124;6.018;2023-12-07T12:10:53;34.55;;;14.80;;
47599;SDS011;33323;52.124;6.018;2023-12-07T12:13:33;33.97;;;15.25;;
47599;SDS011;33323;52.124;6.018;2023-12-07T12:16:04;36.60;;;14.55;;
47599;SDS011;33323;52.124;6.018;2023-12-07T12:18:38;36.55;;;14.75;;
47599;SDS011;33323;52.124;6.018;2023-12-07T12:21:10;39.22;;;16.48;;
47599;SDS011;33323;52.124;6.018;2023-12-07T12:23:46;39.47;;;14.63;;
47599;SDS011;33323;52.124;6.018;2023-12-07T12:26:19;35.15;;;14.95;;
47599;SDS011;33323;52.124;6.018;2023-12-07T12:28:54;38.22;;;16.67;;
47599;SDS011;33323;52.124;6.018;2023-12-07T12:31:31;38.70;;;13.93;;
47599;SDS011;33323;52.124;6.018;2023-12-07T12:34:02;36.60;;;14.73;;
47599;SDS011;33323;52.124;6.018;2023-12-07T12:36:43;45.42;;;15.73;;
47599;SDS011;33323;52.124;6.018;2023-12-07T12:39:14;48.53;;;15.60;;
47599;SDS011;33323;52.124;6.018;2023-12-07T12:41:56;47.38;;;17.38;;
47599;SDS011;33323;52.124;6.018;2023-12-07T12:44:27;45.85;;;17.17;;
47599;SDS011;33323;52.124;6.018;2023-12-07T12:47:06;55.60;;;18.42;;
47599;SDS011;33323;52.124;6.018;2023-12-07T12:49:39;53.17;;;18.85;;
47599;SDS011;33323;52.124;6.018;2023-12-07T12:52:14;62.60;;;20.55;;
47599;SDS011;33323;52.124;6.018;2023-12-07T12:54:44;64.70;;;20.02;;
47599;SDS011;33323;52.124;6.018;2023-12-07T12:57:12;52.97;;;19.75;;
47599;SDS011;33323;52.124;6.018;2023-12-07T12:59:45;57.05;;;19.23;;
47599;SDS011;33323;52.124;6.018;2023-12-07T13:02:14;55.60;;;21.13;;
47599;SDS011;33323;52.124;6.018;2023-12-07T13:04:42;56.80;;;21.60;;
47599;SDS011;33323;52.124;6.018;2023-12-07T13:07:14;50.67;;;19.45;;
47599;SDS011;33323;52.124;6.018;2023-12-07T13:09:42;62.03;;;23.23;;
47599;SDS011;33323;52.124;6.018;2023-12-07T13:12:13;56.60;;;20.75;;
47599;SDS011;33323;52.124;6.018;2023-12-07T13:14:46;66.53;;;21.05;;
47599;SDS011;33323;52.124;6.018;2023-12-07T13:17:16;60.00;;;21.73;;
47599;SDS011;33323;52.124;6.018;2023-12-07T13:19:44;55.95;;;20.38;;
47599;SDS011;33323;52.124;6.018;2023-12-07T13:22:12;54.70;;;22.27;;
47599;SDS011;33323;52.124;6.018;2023-12-07T13:24:40;55.97;;;20.25;;
47599;SDS011;33323;52.124;6.018;2023-12-07T13:27:08;68.38;;;24.90;;
47599;SDS011;33323;52.124;6.018;2023-12-07T13:29:36;73.75;;;27.65;;
47599;SDS011;33323;52.124;6.018;2023-12-07T13:32:06;60.20;;;23.42;;
47599;SDS011;33323;52.124;6.018;2023-12-07T13:34:35;71.22;;;27.50;;
47599;SDS011;33323;52.124;6.018;2023-12-07T13:37:03;56.45;;;23.70;;
47599;SDS011;33323;52.124;6.018;2023-12-07T13:39:34;60.97;;;24.52;;
47599;SDS011;33323;52.124;6.018;2023-12-07T13:42:05;61.80;;;22.25;;
47599;SDS011;33323;52.124;6.018;2023-12-07T13:44:34;63.17;;;22.35;;
47599;SDS011;33323;52.124;6.018;2023-12-07T13:47:05;66.47;;;24.80;;
47599;SDS011;33323;52.124;6.018;2023-12-07T13:49:36;60.70;;;23.48;;
47599;SDS011;33323;52.124;6.018;2023-12-07T13:52:06;78.28;;;25.92;;
47599;SDS011;33323;52.124;6.018;2023-12-07T13:54:35;67.07;;;27.02;;
47599;SDS011;33323;52.124;6.018;2023-12-07T13:57:06;57.60;;;23.90;;
47599;SDS011;33323;52.124;6.018;2023-12-07T13:59:35;56.28;;;22.45;;
47599;SDS011;33323;52.124;6.018;2023-12-07T14:02:04;61.03;;;23.77;;
47599;SDS011;33323;52.124;6.018;2023-12-07T14:04:33;58.13;;;25.05;;
47599;SDS011;33323;52.124;6.018;2023-12-07T14:07:14;52.40;;;23.52;;
47599;SDS011;33323;52.124;6.018;2023-12-07T14:09:52;56.03;;;23.10;;
47599;SDS011;33323;52.124;6.018;2023-12-07T14:12:25;55.85;;;25.65;;
47599;SDS011;33323;52.124;6.018;2023-12-07T14:14:59;56.22;;;24.35;;
47599;SDS011;33323;52.124;6.018;2023-12-07T14:17:30;63.53;;;26.33;;
47599;SDS011;33323;52.124;6.018;2023-12-07T14:20:18;66.38;;;25.92;;
47599;SDS011;33323;52.124;6.018;2023-12-07T14:23:11;65.75;;;28.90;;
47599;SDS011;33323;52.124;6.018;2023-12-07T14:25:43;58.38;;;24.77;;
47599;SDS011;33323;52.124;6.018;2023-12-07T14:28:17;64.25;;;27.58;;
47599;SDS011;33323;52.124;6.018;2023-12-07T14:30:48;66.90;;;27.25;;
47599;SDS011;33323;52.124;6.018;2023-12-07T14:33:23;66.80;;;25.70;;
47599;SDS011;33323;52.124;6.018;2023-12-07T14:35:52;66.50;;;30.38;;
47599;SDS011;33323;52.124;6.018;2023-12-07T14:38:22;70.00;;;27.88;;